Terminal Aerodrome Forecast
Issued by NWS Jackson, MS

Home | Current Version | Previous Version | Text Only | Print | Product List | Glossary On
Versions: 1 2 3 4 5 6 7 8 9 10 11 12 13 14
698
FTUS44 KMEG 270303 AAA
TAFTUP
TAF AMD
KTUP 270303Z 2703/2724 17014G26KT P6SM VCTS OVC080CB
      TEMPO 2703/2705 27020G30KT 1 1/2SM TSRA OVC030CB
     FM270600 19014G23KT P6SM VCSH SCT015 OVC030
     FM270900 28011KT P6SM FEW009 BKN015
     FM271200 29010KT P6SM OVC007
     FM271600 30010KT P6SM SCT007 OVC015
     FM271800 29008G14KT P6SM SCT050=

USA.gov is the U.S. government's official web portal to all federal, state and local government web resources and services.